Time;durP1;ratioP1;P1;durP2;ratioP2;P2;SDS_P1;SDS_P2;PMS_P1;PMS_P2;Temp;Humidity;BMP_temperature;BMP_pressure;BME280_temperature;BME280_humidity;BME280_pressure;Samples;Min_cycle;Max_cycle;Signal;HPM_P1;HPM_P2
2022/05/14 00:02:08;;;;;;;23.65;21.38;;;9.80;99.90;;;;;;4960731;28;20631;-74
2022/05/14 00:04:35;;;;;;;26.08;22.77;;;9.90;99.90;;;;;;4961342;28;20043;-73
2022/05/14 00:07:02;;;;;;;24.58;21.80;;;10.10;99.90;;;;;;4959543;28;20053;-73
2022/05/14 00:09:29;;;;;;;24.08;21.92;;;10.20;99.90;;;;;;4968103;28;20066;-73
2022/05/14 00:14:42;;;;;;;24.50;22.10;;;10.20;99.90;;;;;;4972721;28;20054;-70
2022/05/14 00:17:09;;;;;;;25.05;22.23;;;10.00;99.90;;;;;;4980735;28;20097;-72
2022/05/14 00:19:35;;;;;;;23.52;21.73;;;9.90;99.90;;;;;;4980844;28;20446;-72
2022/05/14 00:22:02;;;;;;;24.40;22.20;;;9.70;99.90;;;;;;4979596;28;20577;-73
2022/05/14 00:24:29;;;;;;;25.67;22.88;;;9.50;99.90;;;;;;4979655;28;20522;-71
2022/05/14 00:26:56;;;;;;;26.75;24.20;;;9.40;99.90;;;;;;4979618;28;20128;-73
2022/05/14 00:29:23;;;;;;;26.38;24.05;;;9.30;99.90;;;;;;4976962;28;20050;-70
2022/05/14 00:31:49;;;;;;;26.05;23.70;;;9.20;99.90;;;;;;4962520;28;20074;-72
2022/05/14 00:34:16;;;;;;;25.13;23.05;;;8.90;99.90;;;;;;4958518;28;20423;-71
2022/05/14 00:36:43;;;;;;;26.02;23.52;;;8.80;99.90;;;;;;4991396;28;20066;-70
2022/05/14 00:39:10;;;;;;;29.25;23.20;;;8.90;99.90;;;;;;4993106;28;20731;-73
2022/05/14 00:41:37;;;;;;;23.88;21.50;;;9.10;99.90;;;;;;4983434;28;20049;-72
2022/05/14 00:44:04;;;;;;;23.13;20.77;;;9.20;99.90;;;;;;4978306;28;20053;-71
2022/05/14 00:47:09;;;;;;;24.58;22.23;;;9.00;99.90;;;;;;4977689;28;20514;-71
2022/05/14 00:49:36;;;;;;;24.17;21.88;;;8.90;99.90;;;;;;4960131;28;20051;-71
2022/05/14 00:52:04;;;;;;;24.38;22.13;;;8.70;99.90;;;;;;4978407;28;20050;-72
2022/05/14 00:54:38;;;;;;;25.73;23.15;;;8.90;99.90;;;;;;4978053;28;20043;-71
2022/05/14 00:57:10;;;;;;;30.15;22.88;;;9.00;99.90;;;;;;4975550;28;20065;-71
2022/05/14 00:59:37;;;;;;;24.50;21.73;;;8.90;99.90;;;;;;4977824;28;20112;-71
2022/05/14 01:02:06;;;;;;;26.13;23.42;;;8.70;99.90;;;;;;4977168;28;20104;-71
2022/05/14 01:04:33;;;;;;;27.55;22.75;;;8.60;99.90;;;;;;4976891;28;20052;-71
2022/05/14 01:07:08;;;;;;;28.33;24.40;;;8.40;99.90;;;;;;4959698;28;20524;-72
2022/05/14 01:09:42;;;;;;;28.67;24.95;;;8.40;99.90;;;;;;4968969;28;20881;-71
2022/05/14 01:12:11;;;;;;;27.88;23.85;;;8.30;99.90;;;;;;4976472;28;20049;-73
2022/05/14 01:14:38;;;;;;;25.33;22.85;;;8.50;99.90;;;;;;4977038;28;20054;-71
2022/05/14 01:17:05;;;;;;;27.90;24.00;;;8.50;99.90;;;;;;4976177;28;20068;-71
2022/05/14 01:19:34;;;;;;;27.63;24.17;;;8.40;99.90;;;;;;4978507;28;20062;-71
2022/05/14 01:22:30;;;;;;;26.98;23.75;;;8.60;99.90;;;;;;4976661;28;20118;-72
2022/05/14 01:28:18;;;;;;;25.60;23.23;;;8.60;99.90;;;;;;4956935;28;20054;-71
2022/05/14 01:30:55;;;;;;;26.27;23.05;;;8.60;99.90;;;;;;4977459;28;20125;-72
2022/05/14 01:33:22;;;;;;;25.17;22.90;;;8.70;99.90;;;;;;4951143;28;20067;-72
2022/05/14 01:35:49;;;;;;;28.80;21.88;;;8.70;99.90;;;;;;4957405;28;20047;-72
2022/05/14 01:38:20;;;;;;;24.95;21.85;;;8.60;99.90;;;;;;4958176;28;20142;-71
2022/05/14 01:40:48;;;;;;;24.48;22.13;;;8.70;99.90;;;;;;4977033;28;20776;-72
2022/05/14 01:43:16;;;;;;;23.92;21.33;;;8.80;99.90;;;;;;4975222;28;20129;-71
2022/05/14 01:45:43;;;;;;;25.15;21.83;;;8.80;99.90;;;;;;4968519;28;20047;-72
2022/05/14 01:48:10;;;;;;;24.50;22.00;;;8.80;99.90;;;;;;4958730;28;20047;-72
2022/05/14 01:50:38;;;;;;;24.85;22.10;;;8.90;99.90;;;;;;4961042;28;20129;-71
2022/05/14 01:53:05;;;;;;;24.85;22.35;;;8.80;99.90;;;;;;4956006;28;20058;-71
2022/05/14 01:55:32;;;;;;;24.60;22.50;;;8.90;99.90;;;;;;4989473;28;20510;-71
2022/05/14 01:57:59;;;;;;;27.15;24.30;;;8.90;99.90;;;;;;4959684;28;20050;-73
2022/05/14 02:00:36;;;;;;;28.55;24.65;;;8.90;99.90;;;;;;5001212;28;20116;-71
2022/05/14 02:03:02;;;;;;;25.58;22.88;;;9.00;99.90;;;;;;4983272;28;20058;-73
2022/05/14 02:05:30;;;;;;;25.63;22.77;;;9.00;99.90;;;;;;4976914;28;20129;-72
2022/05/14 02:07:58;;;;;;;25.35;22.40;;;9.00;99.90;;;;;;4977425;28;20051;-72
2022/05/14 02:10:25;;;;;;;25.38;22.35;;;9.00;99.90;;;;;;4981884;28;20069;-72
2022/05/14 02:12:52;;;;;;;24.92;22.30;;;9.00;99.90;;;;;;4978460;28;20057;-72
2022/05/14 02:15:19;;;;;;;25.00;20.95;;;9.00;99.90;;;;;;5017991;23;20052;-75
2022/05/14 02:17:46;;;;;;;27.50;20.92;;;9.00;99.90;;;;;;5006423;28;20061;-75
2022/05/14 02:20:13;;;;;;;23.23;20.92;;;9.00;99.90;;;;;;4990539;28;20049;-75
2022/05/14 02:22:40;;;;;;;25.65;22.13;;;9.00;99.90;;;;;;4990232;28;20045;-75
2022/05/14 02:25:09;;;;;;;26.15;21.60;;;8.90;99.90;;;;;;5023020;28;20157;-75
2022/05/14 02:27:37;;;;;;;22.50;20.38;;;8.90;99.90;;;;;;4990814;28;20586;-75
2022/05/14 02:30:05;;;;;;;27.63;21.85;;;9.00;99.90;;;;;;5007577;28;20064;-75
2022/05/14 02:32:32;;;;;;;26.52;21.48;;;8.90;99.90;;;;;;5023387;28;20264;-75
2022/05/14 02:34:59;;;;;;;24.20;21.80;;;9.00;99.90;;;;;;5007521;28;20058;-75
2022/05/14 02:37:27;;;;;;;25.67;21.80;;;8.90;99.90;;;;;;5023181;28;20057;-75
2022/05/14 02:39:54;;;;;;;28.63;21.25;;;8.90;99.90;;;;;;5011870;28;20041;-75
2022/05/14 02:42:21;;;;;;;25.55;20.88;;;8.90;99.90;;;;;;5011565;28;20099;-75
2022/05/14 02:44:49;;;;;;;22.80;20.58;;;8.80;99.90;;;;;;5033743;28;20045;-75
2022/05/14 02:47:17;;;;;;;25.65;21.55;;;8.90;99.90;;;;;;5006136;28;20050;-74
2022/05/14 02:49:44;;;;;;;26.85;22.85;;;9.00;99.90;;;;;;5007072;23;20053;-73
2022/05/14 02:52:12;;;;;;;26.35;22.98;;;9.10;99.90;;;;;;5016054;28;20462;-73
2022/05/14 02:54:39;;;;;;;24.25;21.67;;;9.20;99.90;;;;;;5022644;28;20674;-73
2022/05/14 02:57:07;;;;;;;24.55;22.05;;;9.30;99.90;;;;;;5022334;28;20129;-73
2022/05/14 02:59:34;;;;;;;24.83;22.25;;;9.30;99.90;;;;;;5023803;28;20033;-74
2022/05/14 03:02:03;;;;;;;23.58;21.15;;;9.10;99.90;;;;;;5006885;28;20046;-73
2022/05/14 03:04:32;;;;;;;27.45;22.67;;;9.00;99.90;;;;;;5002660;28;20074;-73
2022/05/14 03:06:59;;;;;;;24.17;21.77;;;9.00;99.90;;;;;;5002078;28;20061;-73
2022/05/14 03:09:26;;;;;;;27.52;23.15;;;9.00;99.90;;;;;;5008225;28;20034;-73
2022/05/14 03:11:53;;;;;;;26.80;23.00;;;9.10;99.90;;;;;;5004507;28;20049;-73
2022/05/14 03:14:20;;;;;;;25.23;22.40;;;9.10;99.90;;;;;;5026553;28;20659;-74
2022/05/14 03:16:48;;;;;;;26.15;23.05;;;9.00;99.90;;;;;;5021592;28;20055;-75
2022/05/14 03:19:15;;;;;;;27.60;22.27;;;9.00;99.90;;;;;;4993090;28;20820;-74
2022/05/14 03:21:43;;;;;;;27.48;21.95;;;9.00;99.90;;;;;;4999999;28;20069;-73
2022/05/14 03:24:11;;;;;;;26.23;23.23;;;8.90;99.90;;;;;;5004880;28;20119;-74
2022/05/14 03:26:39;;;;;;;30.35;22.63;;;9.00;99.90;;;;;;5005039;28;20038;-74
2022/05/14 03:29:07;;;;;;;26.73;23.58;;;8.90;99.90;;;;;;5042984;28;20255;-74
2022/05/14 03:31:35;;;;;;;31.55;24.02;;;8.90;99.90;;;;;;5041546;28;20099;-74
2022/05/14 03:34:03;;;;;;;34.50;24.25;;;8.80;99.90;;;;;;5041944;28;20052;-74
2022/05/14 03:36:31;;;;;;;31.15;24.75;;;8.80;99.90;;;;;;5017520;28;20076;-74
2022/05/14 03:38:58;;;;;;;33.05;24.02;;;8.70;99.90;;;;;;5009870;28;20772;-74
2022/05/14 03:41:25;;;;;;;35.65;24.83;;;8.60;99.90;;;;;;5005369;28;20034;-74
2022/05/14 03:43:52;;;;;;;36.00;22.15;;;8.70;99.90;;;;;;4999244;28;20046;-74
2022/05/14 03:46:19;;;;;;;34.83;24.85;;;8.50;99.90;;;;;;5006986;28;20054;-74
2022/05/14 03:48:46;;;;;;;34.13;23.55;;;8.50;99.90;;;;;;5005503;28;20065;-74
2022/05/14 03:51:13;;;;;;;32.05;23.67;;;8.60;99.90;;;;;;4989378;28;20069;-74
2022/05/14 03:53:40;;;;;;;40.35;25.15;;;8.60;99.90;;;;;;4995974;28;20050;-74
2022/05/14 03:56:08;;;;;;;42.30;26.35;;;8.60;99.90;;;;;;5005139;28;20073;-75
2022/05/14 03:58:36;;;;;;;33.90;24.98;;;8.60;99.90;;;;;;5007076;28;20073;-74
2022/05/14 04:01:05;;;;;;;36.80;25.38;;;8.60;99.90;;;;;;5004875;28;20699;-74
2022/05/14 04:03:34;;;;;;;31.13;23.67;;;8.50;99.90;;;;;;5005275;28;20065;-74
2022/05/14 04:06:02;;;;;;;33.63;23.27;;;8.50;99.90;;;;;;4989288;28;20127;-75
2022/05/14 04:08:29;;;;;;;32.30;23.00;;;8.70;99.90;;;;;;5005618;28;20096;-74
2022/05/14 04:10:56;;;;;;;30.80;23.27;;;8.70;99.90;;;;;;5013926;28;20064;-74
2022/05/14 04:13:23;;;;;;;35.33;23.63;;;8.70;99.90;;;;;;5022553;28;20137;-74
2022/05/14 04:15:50;;;;;;;31.27;22.17;;;8.80;99.90;;;;;;5017570;28;20041;-74
2022/05/14 04:18:24;;;;;;;40.17;24.17;;;8.80;99.90;;;;;;5020384;28;20084;-74
2022/05/14 04:20:57;;;;;;;32.25;21.05;;;8.90;99.90;;;;;;5024466;28;20136;-74
2022/05/14 04:23:25;;;;;;;33.33;21.73;;;9.00;99.90;;;;;;5013688;28;20053;-74
2022/05/14 04:25:52;;;;;;;31.10;22.17;;;9.00;99.90;;;;;;5004670;28;20049;-74
2022/05/14 04:28:22;;;;;;;32.67;22.13;;;9.10;99.90;;;;;;5004744;28;20097;-74
2022/05/14 04:30:49;;;;;;;26.58;21.95;;;9.20;99.90;;;;;;5003653;28;20112;-74
2022/05/14 04:33:17;;;;;;;30.95;22.35;;;9.10;99.90;;;;;;5004984;28;20052;-75
2022/05/14 04:35:45;;;;;;;28.00;21.40;;;9.20;99.90;;;;;;5004845;28;20053;-74
2022/05/14 04:38:12;;;;;;;28.92;21.45;;;9.20;99.90;;;;;;5003582;28;20116;-74
2022/05/14 04:40:39;;;;;;;25.15;21.98;;;9.30;99.90;;;;;;5006281;28;20682;-74
2022/05/14 04:43:10;;;;;;;26.17;22.10;;;9.30;99.90;;;;;;4998175;28;20480;-75
2022/05/14 04:45:38;;;;;;;28.75;21.02;;;9.30;99.90;;;;;;5014816;28;20490;-74
2022/05/14 04:48:06;;;;;;;27.27;21.75;;;9.20;99.90;;;;;;5020430;28;20037;-74
2022/05/14 04:50:33;;;;;;;25.88;21.83;;;9.30;99.90;;;;;;5012583;28;20657;-74
2022/05/14 04:53:00;;;;;;;29.02;21.05;;;9.40;99.90;;;;;;5003493;28;20149;-75
2022/05/14 04:55:28;;;;;;;30.75;22.35;;;9.40;99.90;;;;;;5003286;28;20406;-74
2022/05/14 04:57:55;;;;;;;28.38;23.85;;;9.50;99.90;;;;;;5004919;28;20054;-74
2022/05/14 05:00:23;;;;;;;30.60;22.60;;;9.60;99.90;;;;;;5003545;28;20054;-74
2022/05/14 05:03:32;;;;;;;27.08;22.10;;;9.70;99.90;;;;;;5003269;28;20053;-75
2022/05/14 05:05:40;;;;;;;34.72;21.75;;;9.90;99.90;;;;;;4995704;28;20149;-74
2022/05/14 05:08:06;;;;;;;30.35;21.15;;;9.90;99.90;;;;;;5003768;28;20445;-74
2022/05/14 05:10:34;;;;;;;34.20;20.90;;;10.00;99.90;;;;;;5003281;28;20628;-75
2022/05/14 05:13:01;;;;;;;29.08;20.58;;;10.10;99.90;;;;;;5009678;28;20080;-74
2022/05/14 05:15:28;;;;;;;23.38;20.20;;;10.20;99.90;;;;;;5012619;28;20041;-74
2022/05/14 05:17:55;;;;;;;25.50;19.50;;;10.30;99.90;;;;;;5019152;28;20097;-73
2022/05/14 05:20:22;;;;;;;22.77;20.33;;;10.40;99.90;;;;;;5024515;28;20085;-75
2022/05/14 05:22:49;;;;;;;28.17;21.23;;;10.40;99.90;;;;;;5024512;28;20053;-74
2022/05/14 05:25:16;;;;;;;25.20;20.85;;;10.50;99.90;;;;;;5007716;28;20137;-73
2022/05/14 05:27:44;;;;;;;24.75;22.30;;;10.60;99.90;;;;;;5008081;28;20056;-74
2022/05/14 05:30:12;;;;;;;26.42;21.15;;;10.70;99.90;;;;;;5003466;28;20261;-74
2022/05/14 05:32:38;;;;;;;33.65;21.05;;;10.70;99.90;;;;;;5004285;28;20081;-74
2022/05/14 05:35:06;;;;;;;21.80;19.27;;;10.70;99.90;;;;;;5003674;28;20565;-74
2022/05/14 05:37:33;;;;;;;24.20;19.83;;;10.90;99.90;;;;;;5004356;28;20077;-74
2022/05/14 05:40:00;;;;;;;29.33;21.55;;;11.10;99.90;;;;;;5004517;28;20054;-74
2022/05/14 05:42:27;;;;;;;24.55;21.73;;;11.30;99.90;;;;;;5007133;28;20042;-74
2022/05/14 05:44:55;;;;;;;24.45;22.10;;;11.50;99.90;;;;;;5011436;28;20132;-74
2022/05/14 05:47:23;;;;;;;24.35;22.30;;;11.50;99.90;;;;;;5021999;28;20068;-74
2022/05/14 05:49:50;;;;;;;25.50;21.98;;;11.60;99.90;;;;;;5004655;28;20030;-74
2022/05/14 05:52:17;;;;;;;23.48;21.02;;;11.60;99.90;;;;;;5003177;28;20510;-74
2022/05/14 05:57:39;;;;;;;26.92;22.70;;;11.70;99.90;;;;;;5002965;28;20104;-75
2022/05/14 06:00:13;;;;;;;25.70;23.30;;;11.90;99.90;;;;;;5002310;28;20093;-75
2022/05/14 06:02:40;;;;;;;29.00;23.65;;;12.00;99.90;;;;;;5003963;28;20050;-74
2022/05/14 06:05:07;;;;;;;27.52;24.67;;;12.20;99.90;;;;;;5002618;28;20085;-75
2022/05/14 06:07:35;;;;;;;31.40;26.08;;;12.20;99.90;;;;;;5004777;28;20085;-75
2022/05/14 06:10:04;;;;;;;29.20;24.80;;;12.30;99.90;;;;;;5003487;28;20054;-74
2022/05/14 06:12:38;;;;;;;29.02;24.63;;;12.50;99.90;;;;;;5006371;28;20046;-74
2022/05/14 06:15:12;;;;;;;27.25;24.63;;;12.60;99.90;;;;;;5013405;28;20076;-74
2022/05/14 06:17:40;;;;;;;29.50;25.90;;;12.70;99.90;;;;;;5017069;28;20100;-74
2022/05/14 06:20:10;;;;;;;28.27;25.17;;;12.80;99.90;;;;;;5003877;28;20057;-74
2022/05/14 06:22:37;;;;;;;29.10;25.50;;;12.80;99.90;;;;;;5003327;28;20088;-74
2022/05/14 06:25:05;;;;;;;30.65;26.27;;;12.80;99.90;;;;;;5001036;28;20092;-74
2022/05/14 06:27:32;;;;;;;32.03;25.95;;;12.90;99.90;;;;;;5002534;28;20038;-74
2022/05/14 06:29:59;;;;;;;29.30;26.33;;;13.00;99.90;;;;;;5004291;28;20104;-74
2022/05/14 06:32:26;;;;;;;33.28;27.85;;;12.90;99.90;;;;;;5001275;28;20111;-74
2022/05/14 06:34:53;;;;;;;30.02;26.88;;;12.90;99.90;;;;;;5003418;28;20050;-74
2022/05/14 06:37:19;;;;;;;36.78;27.15;;;13.00;99.90;;;;;;5002369;28;20502;-75
2022/05/14 06:39:46;;;;;;;28.77;25.90;;;13.10;99.90;;;;;;5003789;28;20135;-74
2022/05/14 06:42:13;;;;;;;35.60;26.27;;;13.20;99.90;;;;;;5004097;28;20096;-74
2022/05/14 06:44:42;;;;;;;33.28;27.33;;;13.50;99.90;;;;;;5012785;28;20046;-74
2022/05/14 06:47:09;;;;;;;33.53;28.42;;;13.60;99.90;;;;;;5014539;28;20037;-74
2022/05/14 06:49:36;;;;;;;30.65;27.42;;;13.70;99.90;;;;;;5021620;28;20466;-75
2022/05/14 06:52:05;;;;;;;30.35;27.60;;;13.90;99.90;;;;;;5001897;28;20042;-74
2022/05/14 06:54:34;;;;;;;30.52;27.73;;;14.00;99.90;;;;;;5003313;28;20081;-74
2022/05/14 06:57:02;;;;;;;33.20;29.10;;;14.30;99.90;;;;;;5003049;28;20042;-74
2022/05/14 06:59:30;;;;;;;31.95;28.65;;;14.40;99.90;;;;;;5002489;28;20054;-74
2022/05/14 07:01:57;;;;;;;32.83;28.52;;;14.40;99.90;;;;;;5003849;28;20053;-75
2022/05/14 07:07:09;;;;;;;32.33;28.67;;;14.60;99.90;;;;;;5007604;28;20042;-74
2022/05/14 07:09:36;;;;;;;32.00;28.55;;;14.50;99.90;;;;;;5006284;28;20161;-74
2022/05/14 07:12:08;;;;;;;33.75;29.58;;;14.60;99.90;;;;;;5007942;28;20041;-74
2022/05/14 07:14:35;;;;;;;33.30;30.05;;;14.70;99.90;;;;;;5019471;28;20061;-75
2022/05/14 07:17:03;;;;;;;32.28;28.38;;;14.60;99.90;;;;;;5014512;28;20566;-74
2022/05/14 07:19:30;;;;;;;31.70;28.20;;;14.70;99.90;;;;;;5006660;28;20050;-75
2022/05/14 07:21:57;;;;;;;33.30;29.85;;;14.80;99.90;;;;;;5006582;28;20074;-74
2022/05/14 07:24:29;;;;;;;32.97;29.60;;;14.90;99.90;;;;;;5006348;28;20377;-75
2022/05/14 07:26:59;;;;;;;32.90;30.05;;;14.80;99.90;;;;;;5006761;28;20104;-74
2022/05/14 07:29:27;;;;;;;33.42;30.20;;;14.90;99.90;;;;;;5011787;28;20053;-73
2022/05/14 07:31:54;;;;;;;34.20;30.95;;;14.90;99.90;;;;;;5006497;28;20042;-74
2022/05/14 07:34:22;;;;;;;36.38;29.77;;;15.20;99.90;;;;;;5006316;28;20049;-74
2022/05/14 07:37:34;;;;;;;32.97;29.63;;;15.30;99.90;;;;;;5006493;28;20057;-74
2022/05/14 07:40:08;;;;;;;31.77;28.48;;;15.40;99.90;;;;;;4926857;29;20306;-74
2022/05/14 07:42:48;;;;;;;32.97;29.85;;;15.50;99.90;;;;;;4932981;28;20118;-74
2022/05/14 07:45:19;;;;;;;34.17;28.95;;;15.60;99.90;;;;;;4986574;28;20394;-74
2022/05/14 07:47:46;;;;;;;32.63;29.67;;;15.40;99.90;;;;;;5009931;28;20108;-74
2022/05/14 07:50:13;;;;;;;32.38;29.50;;;15.60;99.90;;;;;;5005509;28;20100;-73
2022/05/14 07:52:40;;;;;;;32.30;29.65;;;15.60;99.90;;;;;;5004936;28;20085;-74
2022/05/14 07:55:08;;;;;;;33.42;30.10;;;15.90;99.90;;;;;;5005975;28;20080;-74
2022/05/14 07:57:36;;;;;;;32.85;29.73;;;15.80;99.90;;;;;;5015221;28;20533;-74
2022/05/14 08:00:04;;;;;;;33.20;30.08;;;15.90;99.90;;;;;;5009091;28;20562;-74
2022/05/14 08:02:40;;;;;;;31.25;28.58;;;16.00;99.90;;;;;;5005736;28;20046;-74
2022/05/14 08:05:09;;;;;;;31.35;28.42;;;16.10;99.90;;;;;;5004238;28;20046;-74
2022/05/14 08:07:37;;;;;;;33.75;30.13;;;16.40;99.90;;;;;;5005263;28;20096;-74
2022/05/14 08:10:06;;;;;;;32.83;29.48;;;16.60;99.90;;;;;;5006333;28;20445;-74
2022/05/14 08:12:45;;;;;;;32.42;29.42;;;16.60;99.90;;;;;;5010169;28;20064;-73
2022/05/14 08:15:17;;;;;;;33.38;29.50;;;16.60;99.90;;;;;;5015811;28;20110;-74
2022/05/14 08:17:45;;;;;;;32.28;29.40;;;16.80;99.90;;;;;;5009169;28;20046;-74
2022/05/14 08:20:14;;;;;;;31.52;28.58;;;16.90;99.90;;;;;;5004705;28;20454;-75
2022/05/14 08:25:27;;;;;;;31.35;28.38;;;17.40;99.90;;;;;;5005980;28;20490;-74
2022/05/14 08:27:55;;;;;;;30.05;27.13;;;17.50;99.90;;;;;;5006266;28;20619;-74
2022/05/14 08:30:24;;;;;;;30.08;27.33;;;17.60;99.90;;;;;;5005866;28;20057;-74
2022/05/14 08:32:52;;;;;;;29.38;26.77;;;17.70;99.90;;;;;;5004968;28;20080;-74
2022/05/14 08:35:19;;;;;;;30.15;27.42;;;17.80;99.90;;;;;;5005252;28;20050;-74
2022/05/14 08:37:48;;;;;;;31.02;27.95;;;17.90;99.90;;;;;;5002312;28;20050;-74
2022/05/14 08:40:21;;;;;;;28.83;26.52;;;17.90;99.90;;;;;;5004625;28;20499;-74
2022/05/14 08:42:59;;;;;;;29.42;26.73;;;18.10;99.90;;;;;;5009834;28;20073;-74
2022/05/14 08:45:28;;;;;;;28.85;26.23;;;18.20;99.90;;;;;;5016543;28;20136;-75
2022/05/14 08:48:28;;;;;;;30.95;28.05;;;18.10;99.90;;;;;;5008529;28;20523;-74
2022/05/14 08:51:03;;;;;;;30.30;27.58;;;18.30;99.90;;;;;;4963581;28;20050;-75
2022/05/14 08:53:32;;;;;;;28.55;26.20;;;18.60;99.90;;;;;;4982135;28;20066;-76
2022/05/14 08:56:20;;;;;;;31.88;28.98;;;18.50;99.90;;;;;;4950078;28;20046;-75
2022/05/14 08:58:57;;;;;;;30.35;27.63;;;18.20;99.90;;;;;;4981618;28;20539;-76
2022/05/14 09:01:28;;;;;;;29.25;26.58;;;18.30;99.90;;;;;;4967372;28;20039;-75
2022/05/14 09:03:56;;;;;;;29.70;26.85;;;18.60;99.90;;;;;;4966163;28;20117;-76
2022/05/14 09:06:23;;;;;;;29.85;26.88;;;18.90;99.90;;;;;;4980416;28;20102;-75
2022/05/14 09:08:49;;;;;;;30.08;27.08;;;19.00;99.90;;;;;;4981433;28;20158;-76
2022/05/14 09:11:27;;;;;;;28.42;25.95;;;19.10;99.90;;;;;;4964581;28;20124;-75
2022/05/14 09:14:00;;;;;;;29.05;26.30;;;19.10;99.90;;;;;;4980559;28;20109;-75
2022/05/14 09:16:36;;;;;;;31.60;28.77;;;18.60;99.90;;;;;;4989663;28;20073;-75
2022/05/14 09:19:14;;;;;;;31.90;29.23;;;18.30;99.90;;;;;;4961735;28;20047;-75
2022/05/14 09:21:51;;;;;;;30.92;28.15;;;18.60;99.90;;;;;;4964296;28;20101;-75
2022/05/14 09:24:26;;;;;;;27.17;24.88;;;18.90;99.90;;;;;;4974487;28;20095;-75
2022/05/14 09:27:07;;;;;;;28.00;25.10;;;19.30;99.90;;;;;;4991304;28;20072;-76
2022/05/14 09:29:41;;;;;;;30.08;27.33;;;19.20;99.90;;;;;;4983924;28;20049;-75
2022/05/14 09:32:17;;;;;;;29.02;26.20;;;19.20;99.90;;;;;;4965687;28;20051;-75
2022/05/14 09:34:43;;;;;;;30.48;27.58;;;19.30;99.90;;;;;;4965589;28;20055;-76
2022/05/14 09:37:27;;;;;;;30.88;27.85;;;19.20;99.90;;;;;;4964922;28;20050;-76
2022/05/14 09:40:02;;;;;;;31.10;27.90;;;19.50;99.90;;;;;;4966729;28;20058;-75
2022/05/14 09:42:32;;;;;;;;;;;19.40;99.90;;;;;;4964942;28;20105;-75
2022/05/14 09:45:00;;;;;;;28.67;26.10;;;19.50;99.90;;;;;;4981306;28;20069;-75
2022/05/14 09:47:35;;;;;;;31.70;28.58;;;19.50;99.90;;;;;;4977715;28;20132;-76
2022/05/14 09:50:05;;;;;;;29.70;27.00;;;19.50;99.90;;;;;;4994775;28;20097;-75
2022/05/14 09:52:36;;;;;;;29.45;27.02;;;19.40;99.90;;;;;;4964441;28;20054;-75
2022/05/14 09:55:08;;;;;;;28.67;26.33;;;19.60;99.90;;;;;;4964258;28;20078;-76
2022/05/14 09:57:58;;;;;;;30.60;27.55;;;20.00;99.90;;;;;;4981372;28;20197;-75
2022/05/14 10:00:58;;;;;;;30.25;27.13;;;20.00;99.90;;;;;;4964716;28;20054;-75
2022/05/14 10:03:55;;;;;;;28.55;25.88;;;20.00;99.90;;;;;;4979362;28;20145;-75
2022/05/14 10:06:46;;;;;;;30.27;27.48;;;20.20;99.90;;;;;;4980055;28;20066;-75
2022/05/14 10:09:18;;;;;;;26.38;24.35;;;20.30;99.90;;;;;;4980462;28;20047;-75
2022/05/14 10:11:53;;;;;;;30.83;27.95;;;20.20;99.90;;;;;;4963673;28;20047;-75
2022/05/14 10:14:38;;;;;;;31.00;27.83;;;20.40;99.90;;;;;;4962822;28;20051;-75
2022/05/14 10:17:13;;;;;;;28.38;26.15;;;20.50;99.90;;;;;;4974889;28;20326;-75
2022/05/14 10:20:11;;;;;;;30.40;27.85;;;20.00;99.90;;;;;;4964501;28;20058;-75
2022/05/14 10:29:05;;;;;;;29.98;26.98;;;20.00;99.90;;;;;;4945479;29;20055;-75
2022/05/14 10:31:50;;;;;;;28.00;25.25;;;20.50;99.90;;;;;;4958495;28;20213;-75
2022/05/14 10:34:23;;;;;;;28.88;26.20;;;20.30;99.90;;;;;;4961237;28;20087;-75
2022/05/14 10:37:25;;;;;;;28.63;25.92;;;20.50;99.90;;;;;;4978037;28;20059;-76
2022/05/14 10:40:04;;;;;;;27.90;25.52;;;20.90;99.90;;;;;;4965773;28;20074;-75
2022/05/14 10:42:46;;;;;;;28.00;25.40;;;21.10;99.90;;;;;;4954700;28;20513;-75
2022/05/14 10:45:27;;;;;;;27.67;25.25;;;20.50;99.90;;;;;;4981409;28;20136;-76
2022/05/14 10:48:12;;;;;;;31.23;28.48;;;20.20;99.90;;;;;;4989456;28;20118;-74
2022/05/14 10:50:39;;;;;;;;;;;20.00;99.90;;;;;;4984841;28;20526;-75
2022/05/14 10:53:08;;;;;;;30.02;26.70;;;20.20;99.90;;;;;;4968525;28;20311;-75
2022/05/14 10:55:50;;;;;;;30.98;27.85;;;20.60;99.90;;;;;;4984206;28;20055;-75
2022/05/14 10:58:35;;;;;;;27.38;24.98;;;20.90;99.90;;;;;;4966702;28;20768;-75
2022/05/14 11:01:07;;;;;;;30.55;27.67;;;21.00;99.90;;;;;;4983295;28;20125;-76
2022/05/14 11:03:40;;;;;;;27.65;25.02;;;20.60;99.90;;;;;;4983777;28;20051;-75
2022/05/14 11:06:10;;;;;;;29.50;26.60;;;20.60;99.90;;;;;;4983517;28;20407;-76
2022/05/14 11:08:39;;;;;;;32.63;29.70;;;20.30;99.90;;;;;;4983610;28;20125;-75
2022/05/14 11:11:17;;;;;;;28.52;25.88;;;20.30;99.90;;;;;;4982855;28;20157;-75
2022/05/14 11:14:01;;;;;;;28.63;26.13;;;20.70;99.90;;;;;;4983562;28;20043;-75
2022/05/14 11:16:57;;;;;;;27.58;25.55;;;20.90;99.90;;;;;;4974333;28;20097;-75
2022/05/14 11:19:33;;;;;;;29.60;27.15;;;21.20;99.90;;;;;;4951543;28;20086;-75
2022/05/14 11:22:01;;;;;;;29.70;27.58;;;21.50;99.90;;;;;;4981818;28;20105;-75
2022/05/14 11:24:39;;;;;;;31.83;29.05;;;21.60;99.90;;;;;;4983518;28;20055;-75
2022/05/14 11:27:07;;;;;;;27.88;25.45;;;21.90;99.90;;;;;;4983536;28;20138;-75
2022/05/14 11:29:50;;;;;;;30.73;27.77;;;21.70;99.90;;;;;;4983742;28;20093;-75
2022/05/14 11:32:21;;;;;;;30.95;28.13;;;21.40;99.90;;;;;;4966581;28;20047;-75
2022/05/14 11:35:00;;;;;;;27.65;24.98;;;21.30;99.90;;;;;;4984118;28;20109;-75
2022/05/14 11:37:33;;;;;;;30.25;27.40;;;21.20;99.90;;;;;;4983347;28;20094;-75
2022/05/14 11:40:13;;;;;;;29.58;26.67;;;21.30;99.90;;;;;;4967535;28;20061;-75
2022/05/14 11:42:43;;;;;;;30.08;27.80;;;21.60;99.90;;;;;;4969578;28;20142;-75
2022/05/14 11:45:14;;;;;;;29.50;26.90;;;21.90;99.90;;;;;;4990499;28;20420;-75
2022/05/14 11:47:42;;;;;;;27.27;24.98;;;21.90;99.90;;;;;;4972329;28;20117;-76
2022/05/14 11:50:10;;;;;;;29.13;26.80;;;21.70;99.90;;;;;;4966809;28;20042;-75
2022/05/14 11:53:02;;;;;;;25.48;23.25;;;21.50;99.90;;;;;;4967099;28;20042;-74
2022/05/14 11:55:36;;;;;;;32.53;29.92;;;21.40;99.90;;;;;;4968144;28;20109;-75
2022/05/14 11:58:13;;;;;;;27.77;24.98;;;21.00;99.90;;;;;;4967986;28;20108;-74
2022/05/14 12:00:42;;;;;;;26.98;24.90;;;21.10;99.90;;;;;;4982520;28;20051;-74
2022/05/14 12:03:13;;;;;;;33.47;30.50;;;21.00;99.90;;;;;;4967095;28;20054;-75
2022/05/14 12:05:44;;;;;;;30.27;27.65;;;21.00;99.90;;;;;;4965931;28;20057;-76
2022/05/14 12:08:19;;;;;;;28.25;25.88;;;21.10;99.90;;;;;;4966781;28;20058;-74
2022/05/14 12:10:57;;;;;;;27.92;25.23;;;21.50;99.90;;;;;;4966275;28;20102;-75
2022/05/14 12:13:40;;;;;;;27.55;24.77;;;21.40;99.90;;;;;;4974767;28;20057;-75
2022/05/14 12:16:07;;;;;;;28.80;25.98;;;21.00;99.90;;;;;;4990544;28;20111;-75
2022/05/14 12:18:41;;;;;;;29.38;26.80;;;20.70;99.90;;;;;;4984083;28;20061;-75
2022/05/14 12:21:08;;;;;;;28.55;26.27;;;20.60;99.90;;;;;;4966276;28;20117;-75
2022/05/14 12:23:40;;;;;;;30.27;27.58;;;20.70;99.90;;;;;;4965893;28;20067;-75
2022/05/14 12:26:33;;;;;;;29.52;27.10;;;21.00;99.90;;;;;;4965383;28;20105;-75
2022/05/14 12:29:11;;;;;;;26.38;24.30;;;21.40;99.90;;;;;;4982267;28;20136;-75
2022/05/14 12:34:34;;;;;;;29.92;27.33;;;21.90;99.90;;;;;;4982522;28;20054;-74
2022/05/14 12:37:03;;;;;;;27.63;25.52;;;22.00;99.90;;;;;;4984029;28;20058;-75
2022/05/14 12:39:31;;;;;;;29.00;26.13;;;22.30;99.90;;;;;;4967140;28;20099;-75
2022/05/14 12:42:01;;;;;;;28.05;25.83;;;22.60;99.90;;;;;;4982159;28;20496;-75
2022/05/14 12:44:44;;;;;;;27.10;24.70;;;22.50;99.90;;;;;;4965539;28;20062;-75
2022/05/14 12:47:19;;;;;;;27.70;24.88;;;22.10;99.90;;;;;;4990045;28;20093;-75
2022/05/14 12:49:47;;;;;;;28.70;25.92;;;21.60;99.90;;;;;;4982446;28;20101;-75
2022/05/14 12:52:20;;;;;;;27.65;25.42;;;21.10;99.90;;;;;;4981492;28;20496;-75
2022/05/14 12:55:03;;;;;;;29.00;26.27;;;20.70;99.90;;;;;;4982376;28;20047;-75
2022/05/14 12:57:33;;;;;;;27.90;25.05;;;20.60;99.90;;;;;;4965299;28;20085;-75
2022/05/14 13:00:00;;;;;;;28.77;25.98;;;20.60;99.90;;;;;;4982014;28;20055;-75
2022/05/14 13:02:34;;;;;;;27.00;24.92;;;20.40;99.90;;;;;;4965442;28;20058;-75
2022/05/14 13:05:13;;;;;;;29.38;26.67;;;20.10;99.90;;;;;;4966584;28;20165;-75
2022/05/14 13:07:54;;;;;;;28.83;26.38;;;20.10;99.90;;;;;;4965762;28;20523;-75
2022/05/14 13:10:24;;;;;;;28.45;25.80;;;20.00;99.90;;;;;;4965251;28;20578;-75
2022/05/14 13:12:55;;;;;;;28.50;26.30;;;20.10;99.90;;;;;;4981453;28;20126;-75
2022/05/14 13:15:36;;;;;;;29.65;26.95;;;20.10;99.90;;;;;;4983182;28;20057;-75